sensor_id;sensor_type;location;lat;lon;timestamp;temperature;humidity
46490;DHT22;32204;49.160;8.580;2023-05-07T00:02:10;16.30;21.70
46490;DHT22;32204;49.160;8.580;2023-05-07T00:04:36;16.20;99.90
46490;DHT22;32204;49.160;8.580;2023-05-07T00:07:04;16.10;99.90
46490;DHT22;32204;49.160;8.580;2023-05-07T00:09:29;16.10;99.90
46490;DHT22;32204;49.160;8.580;2023-05-07T00:11:55;16.10;99.90
46490;DHT22;32204;49.160;8.580;2023-05-07T00:14:20;16.00;99.90
46490;DHT22;32204;49.160;8.580;2023-05-07T00:16:46;15.80;99.90
46490;DHT22;32204;49.160;8.580;2023-05-07T00:19:12;15.70;1.00
46490;DHT22;32204;49.160;8.580;2023-05-07T00:21:38;15.70;99.90
46490;DHT22;32204;49.160;8.580;2023-05-07T00:24:03;15.80;56.30
46490;DHT22;32204;49.160;8.580;2023-05-07T00:26:29;15.80;1.00
46490;DHT22;32204;49.160;8.580;2023-05-07T00:28:55;15.80;1.00
46490;DHT22;32204;49.160;8.580;2023-05-07T00:31:20;15.70;1.00
46490;DHT22;32204;49.160;8.580;2023-05-07T00:33:46;15.70;1.00
46490;DHT22;32204;49.160;8.580;2023-05-07T00:36:12;15.70;1.00
46490;DHT22;32204;49.160;8.580;2023-05-07T00:38:37;15.70;1.00
46490;DHT22;32204;49.160;8.580;2023-05-07T00:41:03;15.60;1.00
46490;DHT22;32204;49.160;8.580;2023-05-07T00:43:29;15.50;91.40
46490;DHT22;32204;49.160;8.580;2023-05-07T00:45:55;15.50;99.90
46490;DHT22;32204;49.160;8.580;2023-05-07T00:48:21;15.50;99.90
46490;DHT22;32204;49.160;8.580;2023-05-07T00:50:47;15.60;99.90
46490;DHT22;32204;49.160;8.580;2023-05-07T00:53:13;15.60;99.90
46490;DHT22;32204;49.160;8.580;2023-05-07T00:55:39;15.60;99.90
46490;DHT22;32204;49.160;8.580;2023-05-07T00:58:05;15.40;99.90
46490;DHT22;32204;49.160;8.580;2023-05-07T01:00:31;15.40;99.90
46490;DHT22;32204;49.160;8.580;2023-05-07T01:02:57;15.40;99.90
46490;DHT22;32204;49.160;8.580;2023-05-07T01:05:23;15.30;99.90
46490;DHT22;32204;49.160;8.580;2023-05-07T01:07:51;15.30;99.90
46490;DHT22;32204;49.160;8.580;2023-05-07T01:10:18;15.30;99.90
46490;DHT22;32204;49.160;8.580;2023-05-07T01:12:44;15.30;99.90
46490;DHT22;32204;49.160;8.580;2023-05-07T01:15:11;15.20;99.90
46490;DHT22;32204;49.160;8.580;2023-05-07T01:17:39;15.40;99.90
46490;DHT22;32204;49.160;8.580;2023-05-07T01:20:06;15.30;99.90
46490;DHT22;32204;49.160;8.580;2023-05-07T01:22:34;15.20;99.90
46490;DHT22;32204;49.160;8.580;2023-05-07T01:25:02;15.10;1.00
46490;DHT22;32204;49.160;8.580;2023-05-07T01:27:28;15.10;1.00
46490;DHT22;32204;49.160;8.580;2023-05-07T01:29:54;15.20;1.00
46490;DHT22;32204;49.160;8.580;2023-05-07T01:32:29;15.30;1.00
46490;DHT22;32204;49.160;8.580;2023-05-07T01:34:57;15.40;1.00
46490;DHT22;32204;49.160;8.580;2023-05-07T01:37:25;15.40;99.90
46490;DHT22;32204;49.160;8.580;2023-05-07T01:39:51;15.50;1.00
46490;DHT22;32204;49.160;8.580;2023-05-07T01:42:17;15.40;99.90
46490;DHT22;32204;49.160;8.580;2023-05-07T01:44:43;15.40;99.90
46490;DHT22;32204;49.160;8.580;2023-05-07T01:47:09;15.30;1.00
46490;DHT22;32204;49.160;8.580;2023-05-07T01:49:35;15.30;1.00
46490;DHT22;32204;49.160;8.580;2023-05-07T01:52:01;15.50;1.00
46490;DHT22;32204;49.160;8.580;2023-05-07T01:54:27;15.50;99.90
46490;DHT22;32204;49.160;8.580;2023-05-07T01:56:53;15.40;99.90
46490;DHT22;32204;49.160;8.580;2023-05-07T01:59:19;15.30;99.90
46490;DHT22;32204;49.160;8.580;2023-05-07T02:01:44;15.20;1.00
46490;DHT22;32204;49.160;8.580;2023-05-07T02:04:10;15.20;1.00
46490;DHT22;32204;49.160;8.580;2023-05-07T02:06:36;15.40;99.90
46490;DHT22;32204;49.160;8.580;2023-05-07T02:09:01;15.30;99.90
46490;DHT22;32204;49.160;8.580;2023-05-07T02:11:27;15.30;1.00
46490;DHT22;32204;49.160;8.580;2023-05-07T02:13:52;15.40;99.90
46490;DHT22;32204;49.160;8.580;2023-05-07T02:16:18;15.40;99.90
46490;DHT22;32204;49.160;8.580;2023-05-07T02:18:45;15.50;99.90
46490;DHT22;32204;49.160;8.580;2023-05-07T02:21:10;15.50;99.90
46490;DHT22;32204;49.160;8.580;2023-05-07T02:23:36;15.60;99.90
46490;DHT22;32204;49.160;8.580;2023-05-07T02:26:04;15.50;99.90
46490;DHT22;32204;49.160;8.580;2023-05-07T02:28:29;15.50;99.90
46490;DHT22;32204;49.160;8.580;2023-05-07T02:30:55;15.50;99.90
46490;DHT22;32204;49.160;8.580;2023-05-07T02:33:21;15.50;99.90
46490;DHT22;32204;49.160;8.580;2023-05-07T02:35:46;15.40;99.90
46490;DHT22;32204;49.160;8.580;2023-05-07T02:38:12;15.30;99.90
46490;DHT22;32204;49.160;8.580;2023-05-07T02:40:37;15.10;99.90
46490;DHT22;32204;49.160;8.580;2023-05-07T02:43:06;15.20;1.00
46490;DHT22;32204;49.160;8.580;2023-05-07T02:45:32;15.20;1.00
46490;DHT22;32204;49.160;8.580;2023-05-07T02:47:58;15.20;99.90
46490;DHT22;32204;49.160;8.580;2023-05-07T02:50:24;15.20;99.90
46490;DHT22;32204;49.160;8.580;2023-05-07T02:52:50;15.10;1.00
46490;DHT22;32204;49.160;8.580;2023-05-07T02:55:16;15.10;1.00
46490;DHT22;32204;49.160;8.580;2023-05-07T02:57:41;15.20;1.00
46490;DHT22;32204;49.160;8.580;2023-05-07T03:00:14;15.30;99.90
46490;DHT22;32204;49.160;8.580;2023-05-07T03:02:41;15.30;99.90
46490;DHT22;32204;49.160;8.580;2023-05-07T03:05:06;15.20;99.90
46490;DHT22;32204;49.160;8.580;2023-05-07T03:07:32;15.00;99.90
46490;DHT22;32204;49.160;8.580;2023-05-07T03:09:58;14.90;1.00
46490;DHT22;32204;49.160;8.580;2023-05-07T03:12:24;14.80;6.90
46490;DHT22;32204;49.160;8.580;2023-05-07T03:14:49;14.80;20.50
46490;DHT22;32204;49.160;8.580;2023-05-07T03:17:15;14.80;95.50
46490;DHT22;32204;49.160;8.580;2023-05-07T03:19:41;14.80;52.40
46490;DHT22;32204;49.160;8.580;2023-05-07T03:22:07;14.70;1.00
46490;DHT22;32204;49.160;8.580;2023-05-07T03:24:32;14.60;36.50
46490;DHT22;32204;49.160;8.580;2023-05-07T03:26:58;14.60;92.20
46490;DHT22;32204;49.160;8.580;2023-05-07T03:29:24;14.60;99.90
46490;DHT22;32204;49.160;8.580;2023-05-07T03:31:49;14.70;85.50
46490;DHT22;32204;49.160;8.580;2023-05-07T03:34:15;14.70;1.00
46490;DHT22;32204;49.160;8.580;2023-05-07T03:36:42;14.70;19.00
46490;DHT22;32204;49.160;8.580;2023-05-07T03:39:08;14.70;1.00
46490;DHT22;32204;49.160;8.580;2023-05-07T03:41:33;14.60;1.00
46490;DHT22;32204;49.160;8.580;2023-05-07T03:43:59;14.30;99.90
46490;DHT22;32204;49.160;8.580;2023-05-07T03:46:24;14.20;99.90
46490;DHT22;32204;49.160;8.580;2023-05-07T03:48:51;14.20;99.90
46490;DHT22;32204;49.160;8.580;2023-05-07T03:51:17;14.10;99.90
46490;DHT22;32204;49.160;8.580;2023-05-07T03:53:43;14.10;99.90
46490;DHT22;32204;49.160;8.580;2023-05-07T03:56:08;14.00;99.90
46490;DHT22;32204;49.160;8.580;2023-05-07T03:58:34;14.10;99.90
46490;DHT22;32204;49.160;8.580;2023-05-07T04:01:03;14.10;99.90
46490;DHT22;32204;49.160;8.580;2023-05-07T04:03:29;14.00;99.90
46490;DHT22;32204;49.160;8.580;2023-05-07T04:05:54;14.10;99.90
46490;DHT22;32204;49.160;8.580;2023-05-07T04:08:20;14.10;99.90
46490;DHT22;32204;49.160;8.580;2023-05-07T04:10:46;14.30;99.90
46490;DHT22;32204;49.160;8.580;2023-05-07T04:13:11;14.40;99.90
46490;DHT22;32204;49.160;8.580;2023-05-07T04:15:37;14.40;99.90
46490;DHT22;32204;49.160;8.580;2023-05-07T04:18:02;14.50;99.90
46490;DHT22;32204;49.160;8.580;2023-05-07T04:20:28;14.60;52.50
46490;DHT22;32204;49.160;8.580;2023-05-07T04:22:53;14.70;32.50
46490;DHT22;32204;49.160;8.580;2023-05-07T04:25:19;14.70;1.00
46490;DHT22;32204;49.160;8.580;2023-05-07T04:27:44;14.70;1.00
46490;DHT22;32204;49.160;8.580;2023-05-07T04:30:11;14.80;1.00
46490;DHT22;32204;49.160;8.580;2023-05-07T04:32:36;14.80;99.90
46490;DHT22;32204;49.160;8.580;2023-05-07T04:35:03;14.70;99.90
46490;DHT22;32204;49.160;8.580;2023-05-07T04:37:28;14.90;99.90
46490;DHT22;32204;49.160;8.580;2023-05-07T04:39:54;14.90;99.90
46490;DHT22;32204;49.160;8.580;2023-05-07T04:42:19;15.00;1.00
46490;DHT22;32204;49.160;8.580;2023-05-07T04:44:45;15.10;99.90
46490;DHT22;32204;49.160;8.580;2023-05-07T04:47:11;15.20;99.90
46490;DHT22;32204;49.160;8.580;2023-05-07T04:49:38;15.30;1.00
46490;DHT22;32204;49.160;8.580;2023-05-07T04:52:04;15.20;1.00
46490;DHT22;32204;49.160;8.580;2023-05-07T04:54:30;15.10;99.90
46490;DHT22;32204;49.160;8.580;2023-05-07T04:56:56;15.10;99.90
46490;DHT22;32204;49.160;8.580;2023-05-07T04:59:22;15.00;99.90
46490;DHT22;32204;49.160;8.580;2023-05-07T05:01:47;15.10;99.90
46490;DHT22;32204;49.160;8.580;2023-05-07T05:04:13;15.20;99.90
46490;DHT22;32204;49.160;8.580;2023-05-07T05:06:39;15.20;99.90
46490;DHT22;32204;49.160;8.580;2023-05-07T05:09:05;15.10;99.90
46490;DHT22;32204;49.160;8.580;2023-05-07T05:11:31;15.00;1.00
46490;DHT22;32204;49.160;8.580;2023-05-07T05:13:58;14.80;1.00
46490;DHT22;32204;49.160;8.580;2023-05-07T05:16:24;14.80;1.00
46490;DHT22;32204;49.160;8.580;2023-05-07T05:18:50;14.80;97.20
46490;DHT22;32204;49.160;8.580;2023-05-07T05:21:17;15.20;1.00
46490;DHT22;32204;49.160;8.580;2023-05-07T05:23:43;15.50;1.00
46490;DHT22;32204;49.160;8.580;2023-05-07T05:26:08;15.50;1.00
46490;DHT22;32204;49.160;8.580;2023-05-07T05:28:34;15.50;70.30
46490;DHT22;32204;49.160;8.580;2023-05-07T05:30:59;15.60;99.90
46490;DHT22;32204;49.160;8.580;2023-05-07T05:33:25;15.80;99.90
46490;DHT22;32204;49.160;8.580;2023-05-07T05:35:50;16.00;84.00
46490;DHT22;32204;49.160;8.580;2023-05-07T05:38:16;16.30;1.00
46490;DHT22;32204;49.160;8.580;2023-05-07T05:40:42;16.60;1.00
46490;DHT22;32204;49.160;8.580;2023-05-07T05:43:07;16.80;1.00
46490;DHT22;32204;49.160;8.580;2023-05-07T05:45:33;16.90;1.00
46490;DHT22;32204;49.160;8.580;2023-05-07T05:47:59;16.80;99.90
46490;DHT22;32204;49.160;8.580;2023-05-07T05:50:25;16.70;1.00
46490;DHT22;32204;49.160;8.580;2023-05-07T05:52:51;16.70;1.00
46490;DHT22;32204;49.160;8.580;2023-05-07T05:55:16;16.70;1.00
46490;DHT22;32204;49.160;8.580;2023-05-07T05:57:42;16.70;5.70
46490;DHT22;32204;49.160;8.580;2023-05-07T06:00:09;16.90;99.90
46490;DHT22;32204;49.160;8.580;2023-05-07T06:02:35;17.00;1.00
46490;DHT22;32204;49.160;8.580;2023-05-07T06:05:00;17.20;99.90
46490;DHT22;32204;49.160;8.580;2023-05-07T06:07:26;17.30;1.00
46490;DHT22;32204;49.160;8.580;2023-05-07T06:09:52;17.50;1.00
46490;DHT22;32204;49.160;8.580;2023-05-07T06:12:17;17.90;35.10
46490;DHT22;32204;49.160;8.580;2023-05-07T06:14:43;18.20;99.90
46490;DHT22;32204;49.160;8.580;2023-05-07T06:17:09;18.40;1.00
46490;DHT22;32204;49.160;8.580;2023-05-07T06:19:35;18.10;1.00
46490;DHT22;32204;49.160;8.580;2023-05-07T06:22:01;17.70;99.90
46490;DHT22;32204;49.160;8.580;2023-05-07T06:24:27;17.90;93.90
46490;DHT22;32204;49.160;8.580;2023-05-07T06:26:53;18.30;99.90
46490;DHT22;32204;49.160;8.580;2023-05-07T06:29:19;18.80;1.00
46490;DHT22;32204;49.160;8.580;2023-05-07T06:31:45;19.30;1.00
46490;DHT22;32204;49.160;8.580;2023-05-07T06:34:10;19.50;1.00
46490;DHT22;32204;49.160;8.580;2023-05-07T06:36:42;19.60;1.00
46490;DHT22;32204;49.160;8.580;2023-05-07T06:39:08;19.70;1.00
46490;DHT22;32204;49.160;8.580;2023-05-07T06:41:33;19.10;99.90
46490;DHT22;32204;49.160;8.580;2023-05-07T06:44:01;18.70;1.00
46490;DHT22;32204;49.160;8.580;2023-05-07T06:46:27;18.30;1.00
46490;DHT22;32204;49.160;8.580;2023-05-07T06:48:53;18.20;99.90
46490;DHT22;32204;49.160;8.580;2023-05-07T06:51:19;18.20;99.90
46490;DHT22;32204;49.160;8.580;2023-05-07T06:53:44;18.20;1.00
46490;DHT22;32204;49.160;8.580;2023-05-07T06:56:10;18.40;1.00
46490;DHT22;32204;49.160;8.580;2023-05-07T06:58:36;18.80;1.00
46490;DHT22;32204;49.160;8.580;2023-05-07T07:01:02;20.00;99.90
46490;DHT22;32204;49.160;8.580;2023-05-07T07:03:28;20.80;99.90
46490;DHT22;32204;49.160;8.580;2023-05-07T07:05:54;20.70;99.90
46490;DHT22;32204;49.160;8.580;2023-05-07T07:08:21;20.90;99.90
46490;DHT22;32204;49.160;8.580;2023-05-07T07:10:47;20.90;99.90
46490;DHT22;32204;49.160;8.580;2023-05-07T07:13:13;20.90;99.90
46490;DHT22;32204;49.160;8.580;2023-05-07T07:15:39;20.90;85.00
46490;DHT22;32204;49.160;8.580;2023-05-07T07:18:05;20.80;99.90
46490;DHT22;32204;49.160;8.580;2023-05-07T07:20:31;20.90;99.90
46490;DHT22;32204;49.160;8.580;2023-05-07T07:22:57;20.70;99.90
46490;DHT22;32204;49.160;8.580;2023-05-07T07:25:23;20.30;99.90
46490;DHT22;32204;49.160;8.580;2023-05-07T07:27:49;20.20;1.00
46490;DHT22;32204;49.160;8.580;2023-05-07T07:30:15;20.30;99.90
46490;DHT22;32204;49.160;8.580;2023-05-07T07:32:40;20.20;99.90
46490;DHT22;32204;49.160;8.580;2023-05-07T07:35:06;19.90;1.00
46490;DHT22;32204;49.160;8.580;2023-05-07T07:37:32;19.90;99.90
46490;DHT22;32204;49.160;8.580;2023-05-07T07:39:58;19.80;11.30
46490;DHT22;32204;49.160;8.580;2023-05-07T07:42:23;19.70;1.00
46490;DHT22;32204;49.160;8.580;2023-05-07T07:44:49;19.70;99.90
46490;DHT22;32204;49.160;8.580;2023-05-07T07:47:15;19.80;1.00
46490;DHT22;32204;49.160;8.580;2023-05-07T07:49:40;20.10;99.90
46490;DHT22;32204;49.160;8.580;2023-05-07T07:52:06;20.20;99.90
46490;DHT22;32204;49.160;8.580;2023-05-07T07:54:32;20.00;99.90
46490;DHT22;32204;49.160;8.580;2023-05-07T07:56:58;20.20;99.90
46490;DHT22;32204;49.160;8.580;2023-05-07T07:59:23;20.10;99.90
46490;DHT22;32204;49.160;8.580;2023-05-07T08:01:49;19.90;99.90
46490;DHT22;32204;49.160;8.580;2023-05-07T08:04:15;19.90;99.90
46490;DHT22;32204;49.160;8.580;2023-05-07T08:06:41;19.90;1.00
46490;DHT22;32204;49.160;8.580;2023-05-07T08:09:07;20.00;1.00
46490;DHT22;32204;49.160;8.580;2023-05-07T08:11:33;20.10;1.00
46490;DHT22;32204;49.160;8.580;2023-05-07T08:13:59;20.20;1.00
46490;DHT22;32204;49.160;8.580;2023-05-07T08:16:25;20.30;1.00
46490;DHT22;32204;49.160;8.580;2023-05-07T08:18:50;20.50;99.90
46490;DHT22;32204;49.160;8.580;2023-05-07T08:21:16;20.60;99.90
46490;DHT22;32204;49.160;8.580;2023-05-07T08:23:42;20.70;99.90
46490;DHT22;32204;49.160;8.580;2023-05-07T08:26:08;21.00;99.90
46490;DHT22;32204;49.160;8.580;2023-05-07T08:28:34;21.20;26.30
46490;DHT22;32204;49.160;8.580;2023-05-07T08:31:00;21.10;11.30
46490;DHT22;32204;49.160;8.580;2023-05-07T08:33:26;21.10;97.30
46490;DHT22;32204;49.160;8.580;2023-05-07T08:35:52;21.10;94.40
46490;DHT22;32204;49.160;8.580;2023-05-07T08:38:17;21.10;66.00
46490;DHT22;32204;49.160;8.580;2023-05-07T08:40:43;21.10;99.50
46490;DHT22;32204;49.160;8.580;2023-05-07T08:43:15;21.10;99.90
46490;DHT22;32204;49.160;8.580;2023-05-07T08:45:41;21.20;99.90
46490;DHT22;32204;49.160;8.580;2023-05-07T08:48:15;21.30;99.90
46490;DHT22;32204;49.160;8.580;2023-05-07T08:50:41;21.50;1.00
46490;DHT22;32204;49.160;8.580;2023-05-07T08:53:06;21.50;1.00
46490;DHT22;32204;49.160;8.580;2023-05-07T08:55:32;21.60;1.00
46490;DHT22;32204;49.160;8.580;2023-05-07T08:57:59;21.60;1.00
46490;DHT22;32204;49.160;8.580;2023-05-07T09:00:24;21.70;1.00
46490;DHT22;32204;49.160;8.580;2023-05-07T09:02:52;21.90;1.00
46490;DHT22;32204;49.160;8.580;2023-05-07T09:05:18;21.90;99.90
46490;DHT22;32204;49.160;8.580;2023-05-07T09:07:44;22.10;1.00
46490;DHT22;32204;49.160;8.580;2023-05-07T09:10:11;22.30;99.90
46490;DHT22;32204;49.160;8.580;2023-05-07T09:12:37;22.40;99.90
46490;DHT22;32204;49.160;8.580;2023-05-07T09:15:03;22.60;99.90
46490;DHT22;32204;49.160;8.580;2023-05-07T09:17:29;22.60;99.90
46490;DHT22;32204;49.160;8.580;2023-05-07T09:19:55;22.70;99.90
46490;DHT22;32204;49.160;8.580;2023-05-07T09:22:20;22.70;99.90
46490;DHT22;32204;49.160;8.580;2023-05-07T09:24:50;22.90;99.90
46490;DHT22;32204;49.160;8.580;2023-05-07T09:27:16;22.90;99.90
46490;DHT22;32204;49.160;8.580;2023-05-07T09:29:43;23.00;99.90
46490;DHT22;32204;49.160;8.580;2023-05-07T09:32:10;22.90;99.90
46490;DHT22;32204;49.160;8.580;2023-05-07T09:34:36;22.80;99.90
46490;DHT22;32204;49.160;8.580;2023-05-07T09:37:03;23.00;99.90
46490;DHT22;32204;49.160;8.580;2023-05-07T09:39:40;23.10;99.90
46490;DHT22;32204;49.160;8.580;2023-05-07T09:42:06;23.00;99.90
46490;DHT22;32204;49.160;8.580;2023-05-07T09:44:32;23.40;99.90
46490;DHT22;32204;49.160;8.580;2023-05-07T09:47:00;23.30;99.90
46490;DHT22;32204;49.160;8.580;2023-05-07T09:49:29;23.20;99.90
46490;DHT22;32204;49.160;8.580;2023-05-07T09:51:59;23.50;99.90
46490;DHT22;32204;49.160;8.580;2023-05-07T09:54:25;23.60;99.90
46490;DHT22;32204;49.160;8.580;2023-05-07T09:56:52;23.40;99.90
46490;DHT22;32204;49.160;8.580;2023-05-07T09:59:19;23.50;99.90
46490;DHT22;32204;49.160;8.580;2023-05-07T10:01:45;23.40;99.90
46490;DHT22;32204;49.160;8.580;2023-05-07T10:04:11;23.50;99.90
46490;DHT22;32204;49.160;8.580;2023-05-07T10:06:38;23.50;99.90
46490;DHT22;32204;49.160;8.580;2023-05-07T10:09:04;23.50;99.90
46490;DHT22;32204;49.160;8.580;2023-05-07T10:11:36;23.70;99.90
46490;DHT22;32204;49.160;8.580;2023-05-07T10:14:03;23.90;99.90
46490;DHT22;32204;49.160;8.580;2023-05-07T10:16:32;23.70;99.90
46490;DHT22;32204;49.160;8.580;2023-05-07T10:19:05;23.70;99.90
46490;DHT22;32204;49.160;8.580;2023-05-07T10:21:35;23.90;99.90
46490;DHT22;32204;49.160;8.580;2023-05-07T10:24:16;24.20;99.90
46490;DHT22;32204;49.160;8.580;2023-05-07T10:26:48;24.30;99.90
46490;DHT22;32204;49.160;8.580;2023-05-07T10:29:21;23.80;99.90
46490;DHT22;32204;49.160;8.580;2023-05-07T10:34:25;24.20;99.90
46490;DHT22;32204;49.160;8.580;2023-05-07T10:36:52;24.40;99.90
46490;DHT22;32204;49.160;8.580;2023-05-07T10:39:19;24.30;99.90
46490;DHT22;32204;49.160;8.580;2023-05-07T10:41:45;24.30;99.90
46490;DHT22;32204;49.160;8.580;2023-05-07T10:44:11;24.50;99.90
46490;DHT22;32204;49.160;8.580;2023-05-07T10:46:36;24.50;99.90
46490;DHT22;32204;49.160;8.580;2023-05-07T10:51:34;24.40;77.20
46490;DHT22;32204;49.160;8.580;2023-05-07T10:56:35;24.60;99.90
46490;DHT22;32204;49.160;8.580;2023-05-07T11:04:21;24.60;99.90
46490;DHT22;32204;49.160;8.580;2023-05-07T11:15:06;25.30;99.90
46490;DHT22;32204;49.160;8.580;2023-05-07T11:17:33;25.40;89.60
46490;DHT22;32204;49.160;8.580;2023-05-07T11:20:01;25.40;91.50
46490;DHT22;32204;49.160;8.580;2023-05-07T11:25:02;24.70;36.30
46490;DHT22;32204;49.160;8.580;2023-05-07T11:27:29;24.60;57.60
46490;DHT22;32204;49.160;8.580;2023-05-07T11:29:55;24.80;47.80
46490;DHT22;32204;49.160;8.580;2023-05-07T11:32:38;24.90;18.80
46490;DHT22;32204;49.160;8.580;2023-05-07T11:35:05;25.20;36.20
46490;DHT22;32204;49.160;8.580;2023-05-07T11:37:31;25.30;19.10
46490;DHT22;32204;49.160;8.580;2023-05-07T11:40:07;25.20;1.00
46490;DHT22;32204;49.160;8.580;2023-05-07T11:42:36;25.40;1.00
46490;DHT22;32204;49.160;8.580;2023-05-07T11:45:03;25.70;1.00
46490;DHT22;32204;49.160;8.580;2023-05-07T11:47:32;25.70;1.00
46490;DHT22;32204;49.160;8.580;2023-05-07T11:50:03;25.50;1.00
46490;DHT22;32204;49.160;8.580;2023-05-07T11:52:30;25.50;1.00
46490;DHT22;32204;49.160;8.580;2023-05-07T11:54:58;25.60;2.00
46490;DHT22;32204;49.160;8.580;2023-05-07T11:57:24;25.50;1.00
46490;DHT22;32204;49.160;8.580;2023-05-07T11:59:57;25.50;1.00
46490;DHT22;32204;49.160;8.580;2023-05-07T12:02:24;25.20;1.00
46490;DHT22;32204;49.160;8.580;2023-05-07T12:04:50;25.10;1.00
46490;DHT22;32204;49.160;8.580;2023-05-07T12:07:17;25.10;1.00
46490;DHT22;32204;49.160;8.580;2023-05-07T12:09:44;25.20;3.80
46490;DHT22;32204;49.160;8.580;2023-05-07T12:12:11;25.30;11.60
46490;DHT22;32204;49.160;8.580;2023-05-07T12:14:41;25.20;15.40
46490;DHT22;32204;49.160;8.580;2023-05-07T12:17:08;25.20;63.60
46490;DHT22;32204;49.160;8.580;2023-05-07T12:19:38;25.40;47.80
46490;DHT22;32204;49.160;8.580;2023-05-07T12:22:04;25.60;26.20
46490;DHT22;32204;49.160;8.580;2023-05-07T12:24:45;25.50;1.00
46490;DHT22;32204;49.160;8.580;2023-05-07T12:27:11;25.30;6.60
46490;DHT22;32204;49.160;8.580;2023-05-07T12:29:37;25.30;1.90
46490;DHT22;32204;49.160;8.580;2023-05-07T12:32:12;25.40;1.00
46490;DHT22;32204;49.160;8.580;2023-05-07T12:34:39;25.20;1.00
46490;DHT22;32204;49.160;8.580;2023-05-07T12:37:05;25.00;1.00
46490;DHT22;32204;49.160;8.580;2023-05-07T12:39:30;25.10;1.00
46490;DHT22;32204;49.160;8.580;2023-05-07T12:41:59;25.20;1.00
46490;DHT22;32204;49.160;8.580;2023-05-07T12:44:28;25.40;1.00
46490;DHT22;32204;49.160;8.580;2023-05-07T12:46:54;25.40;1.00
46490;DHT22;32204;49.160;8.580;2023-05-07T12:49:20;25.50;1.00
46490;DHT22;32204;49.160;8.580;2023-05-07T12:51:49;25.60;1.00
46490;DHT22;32204;49.160;8.580;2023-05-07T12:54:30;25.60;1.00
46490;DHT22;32204;49.160;8.580;2023-05-07T12:57:05;25.60;1.00
46490;DHT22;32204;49.160;8.580;2023-05-07T12:59:38;25.80;1.00
46490;DHT22;32204;49.160;8.580;2023-05-07T13:02:05;26.00;1.00
46490;DHT22;32204;49.160;8.580;2023-05-07T13:04:31;25.80;1.00
46490;DHT22;32204;49.160;8.580;2023-05-07T13:06:57;25.70;1.00
46490;DHT22;32204;49.160;8.580;2023-05-07T13:09:23;25.70;1.00
46490;DHT22;32204;49.160;8.580;2023-05-07T13:11:48;25.70;1.00
46490;DHT22;32204;49.160;8.580;2023-05-07T13:14:14;25.80;1.00
46490;DHT22;32204;49.160;8.580;2023-05-07T13:16:40;25.70;1.00
46490;DHT22;32204;49.160;8.580;2023-05-07T13:19:05;25.60;1.00
46490;DHT22;32204;49.160;8.580;2023-05-07T13:21:31;25.60;1.00
46490;DHT22;32204;49.160;8.580;2023-05-07T13:23:58;25.50;1.00
46490;DHT22;32204;49.160;8.580;2023-05-07T13:26:24;25.20;1.00
46490;DHT22;32204;49.160;8.580;2023-05-07T13:28:50;24.90;1.00
46490;DHT22;32204;49.160;8.580;2023-05-07T13:31:19;24.80;1.00
46490;DHT22;32204;49.160;8.580;2023-05-07T13:33:46;24.70;1.00
46490;DHT22;32204;49.160;8.580;2023-05-07T13:36:11;24.70;1.00
46490;DHT22;32204;49.160;8.580;2023-05-07T13:38:37;24.70;1.00
46490;DHT22;32204;49.160;8.580;2023-05-07T13:41:03;24.70;6.80
46490;DHT22;32204;49.160;8.580;2023-05-07T13:43:28;24.70;1.00
46490;DHT22;32204;49.160;8.580;2023-05-07T13:45:54;24.20;99.90
46490;DHT22;32204;49.160;8.580;2023-05-07T13:48:28;23.40;99.90
46490;DHT22;32204;49.160;8.580;2023-05-07T13:51:12;22.10;1.00
46490;DHT22;32204;49.160;8.580;2023-05-07T13:53:38;20.80;99.90
46490;DHT22;32204;49.160;8.580;2023-05-07T13:56:03;19.80;22.00
46490;DHT22;32204;49.160;8.580;2023-05-07T13:58:30;19.10;8.10
46490;DHT22;32204;49.160;8.580;2023-05-07T14:00:56;18.00;99.90
46490;DHT22;32204;49.160;8.580;2023-05-07T14:03:21;17.30;99.90
46490;DHT22;32204;49.160;8.580;2023-05-07T14:05:47;16.40;99.90
46490;DHT22;32204;49.160;8.580;2023-05-07T14:08:12;16.10;1.00
46490;DHT22;32204;49.160;8.580;2023-05-07T14:10:39;15.90;24.40
46490;DHT22;32204;49.160;8.580;2023-05-07T14:13:05;15.70;99.90
46490;DHT22;32204;49.160;8.580;2023-05-07T14:15:31;15.70;1.00
46490;DHT22;32204;49.160;8.580;2023-05-07T14:18:00;15.70;1.00
46490;DHT22;32204;49.160;8.580;2023-05-07T14:20:26;15.70;1.00
46490;DHT22;32204;49.160;8.580;2023-05-07T14:22:51;15.70;1.00
46490;DHT22;32204;49.160;8.580;2023-05-07T14:25:17;15.70;1.00
46490;DHT22;32204;49.160;8.580;2023-05-07T14:27:43;15.70;1.00
46490;DHT22;32204;49.160;8.580;2023-05-07T14:30:08;15.80;1.00
46490;DHT22;32204;49.160;8.580;2023-05-07T14:32:34;16.10;1.00
46490;DHT22;32204;49.160;8.580;2023-05-07T14:35:00;16.40;1.00
46490;DHT22;32204;49.160;8.580;2023-05-07T14:37:26;16.50;1.00
46490;DHT22;32204;49.160;8.580;2023-05-07T14:39:51;16.60;1.00
46490;DHT22;32204;49.160;8.580;2023-05-07T14:42:17;16.60;1.00
46490;DHT22;32204;49.160;8.580;2023-05-07T14:44:43;16.60;1.00
46490;DHT22;32204;49.160;8.580;2023-05-07T14:47:10;16.70;99.90
46490;DHT22;32204;49.160;8.580;2023-05-07T14:49:36;16.70;1.00
46490;DHT22;32204;49.160;8.580;2023-05-07T14:52:02;16.70;1.00
46490;DHT22;32204;49.160;8.580;2023-05-07T14:54:28;16.70;20.80
46490;DHT22;32204;49.160;8.580;2023-05-07T14:56:54;16.70;54.40
46490;DHT22;32204;49.160;8.580;2023-05-07T14:59:21;16.80;60.00
46490;DHT22;32204;49.160;8.580;2023-05-07T15:01:47;16.90;36.00
46490;DHT22;32204;49.160;8.580;2023-05-07T15:04:13;17.10;99.90
46490;DHT22;32204;49.160;8.580;2023-05-07T15:06:38;17.20;99.90
46490;DHT22;32204;49.160;8.580;2023-05-07T15:09:04;17.20;99.90
46490;DHT22;32204;49.160;8.580;2023-05-07T15:11:30;17.20;26.90
46490;DHT22;32204;49.160;8.580;2023-05-07T15:13:56;17.20;99.90
46490;DHT22;32204;49.160;8.580;2023-05-07T15:16:22;17.10;1.00
46490;DHT22;32204;49.160;8.580;2023-05-07T15:18:48;17.10;99.90
46490;DHT22;32204;49.160;8.580;2023-05-07T15:21:14;17.10;99.90
46490;DHT22;32204;49.160;8.580;2023-05-07T15:23:39;16.80;99.90
46490;DHT22;32204;49.160;8.580;2023-05-07T15:26:06;16.80;99.90
46490;DHT22;32204;49.160;8.580;2023-05-07T15:28:33;16.90;99.90
46490;DHT22;32204;49.160;8.580;2023-05-07T15:30:59;17.00;99.90
46490;DHT22;32204;49.160;8.580;2023-05-07T15:33:25;17.10;99.90
46490;DHT22;32204;49.160;8.580;2023-05-07T15:35:50;17.30;99.90
46490;DHT22;32204;49.160;8.580;2023-05-07T15:38:16;17.40;99.90
46490;DHT22;32204;49.160;8.580;2023-05-07T15:40:42;17.40;99.90
46490;DHT22;32204;49.160;8.580;2023-05-07T15:43:09;17.40;99.90
46490;DHT22;32204;49.160;8.580;2023-05-07T15:45:39;17.30;99.90
46490;DHT22;32204;49.160;8.580;2023-05-07T15:48:06;17.20;99.90
46490;DHT22;32204;49.160;8.580;2023-05-07T15:50:32;17.20;99.90
46490;DHT22;32204;49.160;8.580;2023-05-07T15:52:58;17.20;99.90
46490;DHT22;32204;49.160;8.580;2023-05-07T15:55:23;17.20;99.90
46490;DHT22;32204;49.160;8.580;2023-05-07T15:57:50;17.00;99.90